sensor_id;sensor_type;location;lat;lon;timestamp;temperature;humidity
22360;DHT22;11347;52.030;4.690;2023-07-20T08:30:43;17.40;88.20
22360;DHT22;11347;52.030;4.690;2023-07-20T08:33:10;17.40;89.80
22360;DHT22;11347;52.030;4.690;2023-07-20T08:35:36;17.60;88.30
22360;DHT22;11347;52.030;4.690;2023-07-20T08:38:02;17.70;87.40
22360;DHT22;11347;52.030;4.690;2023-07-20T08:40:27;17.80;86.90
22360;DHT22;11347;52.030;4.690;2023-07-20T08:42:54;17.90;83.90
22360;DHT22;11347;52.030;4.690;2023-07-20T08:45:22;18.00;84.50
22360;DHT22;11347;52.030;4.690;2023-07-20T08:47:50;18.10;79.90
22360;DHT22;11347;52.030;4.690;2023-07-20T08:50:16;18.10;79.90
22360;DHT22;11347;52.030;4.690;2023-07-20T08:52:41;18.30;82.60
22360;DHT22;11347;52.030;4.690;2023-07-20T08:55:07;18.30;81.90
22360;DHT22;11347;52.030;4.690;2023-07-20T08:57:33;18.40;80.50
22360;DHT22;11347;52.030;4.690;2023-07-20T09:00:03;18.40;80.20
22360;DHT22;11347;52.030;4.690;2023-07-20T09:02:38;18.50;77.20
22360;DHT22;11347;52.030;4.690;2023-07-20T09:05:07;18.50;74.10
22360;DHT22;11347;52.030;4.690;2023-07-20T09:07:33;18.60;76.40
22360;DHT22;11347;52.030;4.690;2023-07-20T09:10:00;18.70;74.90
22360;DHT22;11347;52.030;4.690;2023-07-20T09:12:37;18.80;75.10
22360;DHT22;11347;52.030;4.690;2023-07-20T09:15:05;19.00;73.50
22360;DHT22;11347;52.030;4.690;2023-07-20T09:17:31;19.20;71.40
22360;DHT22;11347;52.030;4.690;2023-07-20T09:19:56;19.30;66.90
22360;DHT22;11347;52.030;4.690;2023-07-20T09:22:22;19.50;68.50
22360;DHT22;11347;52.030;4.690;2023-07-20T09:24:47;19.80;68.20
22360;DHT22;11347;52.030;4.690;2023-07-20T09:27:13;19.90;68.90
22360;DHT22;11347;52.030;4.690;2023-07-20T09:29:51;20.00;67.50
22360;DHT22;11347;52.030;4.690;2023-07-20T09:32:21;20.20;60.90
22360;DHT22;11347;52.030;4.690;2023-07-20T09:34:48;20.20;64.60
22360;DHT22;11347;52.030;4.690;2023-07-20T09:37:22;20.30;65.40
22360;DHT22;11347;52.030;4.690;2023-07-20T09:39:51;20.40;66.50
22360;DHT22;11347;52.030;4.690;2023-07-20T09:42:17;20.50;65.80
22360;DHT22;11347;52.030;4.690;2023-07-20T09:44:44;20.80;65.80
22360;DHT22;11347;52.030;4.690;2023-07-20T09:47:10;20.90;63.70
22360;DHT22;11347;52.030;4.690;2023-07-20T09:49:40;21.00;63.60
22360;DHT22;11347;52.030;4.690;2023-07-20T09:52:08;21.10;63.20
22360;DHT22;11347;52.030;4.690;2023-07-20T09:54:37;21.00;63.90
22360;DHT22;11347;52.030;4.690;2023-07-20T09:57:02;21.10;64.60
22360;DHT22;11347;52.030;4.690;2023-07-20T09:59:28;21.10;63.80
22360;DHT22;11347;52.030;4.690;2023-07-20T10:01:58;21.10;63.40
22360;DHT22;11347;52.030;4.690;2023-07-20T10:04:25;21.00;57.70
22360;DHT22;11347;52.030;4.690;2023-07-20T10:06:54;20.90;57.50
22360;DHT22;11347;52.030;4.690;2023-07-20T10:09:21;20.90;60.30
22360;DHT22;11347;52.030;4.690;2023-07-20T10:11:50;20.90;62.20
22360;DHT22;11347;52.030;4.690;2023-07-20T10:14:20;20.80;60.00
22360;DHT22;11347;52.030;4.690;2023-07-20T10:16:54;20.70;59.90
22360;DHT22;11347;52.030;4.690;2023-07-20T10:19:27;20.90;60.00
22360;DHT22;11347;52.030;4.690;2023-07-20T10:22:00;21.00;58.80
22360;DHT22;11347;52.030;4.690;2023-07-20T10:24:28;21.10;58.00
22360;DHT22;11347;52.030;4.690;2023-07-20T10:26:55;21.20;57.50
22360;DHT22;11347;52.030;4.690;2023-07-20T10:29:21;21.50;55.70
22360;DHT22;11347;52.030;4.690;2023-07-20T10:31:47;22.10;55.30
22360;DHT22;11347;52.030;4.690;2023-07-20T10:34:13;22.50;54.80
22360;DHT22;11347;52.030;4.690;2023-07-20T10:36:45;23.10;55.60
22360;DHT22;11347;52.030;4.690;2023-07-20T10:39:32;23.60;51.00
22360;DHT22;11347;52.030;4.690;2023-07-20T10:42:01;24.10;48.10
22360;DHT22;11347;52.030;4.690;2023-07-20T10:44:30;24.50;46.60
22360;DHT22;11347;52.030;4.690;2023-07-20T10:47:03;24.80;43.50
22360;DHT22;11347;52.030;4.690;2023-07-20T10:49:34;25.10;42.40
22360;DHT22;11347;52.030;4.690;2023-07-20T10:52:04;25.30;42.60
22360;DHT22;11347;52.030;4.690;2023-07-20T10:56:57;25.50;38.50
22360;DHT22;11347;52.030;4.690;2023-07-20T11:01:49;25.00;40.40
22360;DHT22;11347;52.030;4.690;2023-07-20T11:04:15;24.90;41.30
22360;DHT22;11347;52.030;4.690;2023-07-20T11:06:46;24.80;39.00
22360;DHT22;11347;52.030;4.690;2023-07-20T11:09:13;24.60;37.80
22360;DHT22;11347;52.030;4.690;2023-07-20T11:11:41;24.50;38.20
22360;DHT22;11347;52.030;4.690;2023-07-20T11:14:09;24.50;40.70
22360;DHT22;11347;52.030;4.690;2023-07-20T11:16:46;24.70;39.50
22360;DHT22;11347;52.030;4.690;2023-07-20T11:19:18;24.80;36.30
22360;DHT22;11347;52.030;4.690;2023-07-20T11:21:46;25.00;37.20
22360;DHT22;11347;52.030;4.690;2023-07-20T11:24:12;25.00;36.00
22360;DHT22;11347;52.030;4.690;2023-07-20T11:27:05;25.10;35.60
22360;DHT22;11347;52.030;4.690;2023-07-20T11:29:30;25.10;35.70
22360;DHT22;11347;52.030;4.690;2023-07-20T11:31:57;25.30;36.50
22360;DHT22;11347;52.030;4.690;2023-07-20T11:34:24;25.40;35.30
22360;DHT22;11347;52.030;4.690;2023-07-20T11:36:51;25.60;37.00
22360;DHT22;11347;52.030;4.690;2023-07-20T11:39:18;25.80;37.70
22360;DHT22;11347;52.030;4.690;2023-07-20T11:41:52;26.00;35.90
22360;DHT22;11347;52.030;4.690;2023-07-20T11:44:19;25.90;35.70
22360;DHT22;11347;52.030;4.690;2023-07-20T11:46:45;25.70;35.90
22360;DHT22;11347;52.030;4.690;2023-07-20T11:49:11;25.50;36.20
22360;DHT22;11347;52.030;4.690;2023-07-20T11:51:38;25.20;36.00
22360;DHT22;11347;52.030;4.690;2023-07-20T11:54:08;24.90;35.70
22360;DHT22;11347;52.030;4.690;2023-07-20T11:56:34;24.60;37.40
22360;DHT22;11347;52.030;4.690;2023-07-20T11:59:00;24.30;37.80
22360;DHT22;11347;52.030;4.690;2023-07-20T12:01:28;24.00;39.60
22360;DHT22;11347;52.030;4.690;2023-07-20T12:04:02;24.00;39.60
22360;DHT22;11347;52.030;4.690;2023-07-20T12:06:28;24.40;37.60
22360;DHT22;11347;52.030;4.690;2023-07-20T12:08:58;25.20;36.70
22360;DHT22;11347;52.030;4.690;2023-07-20T12:11:50;26.10;34.60
22360;DHT22;11347;52.030;4.690;2023-07-20T12:14:16;27.40;32.50
22360;DHT22;11347;52.030;4.690;2023-07-20T12:16:42;28.30;29.20
22360;DHT22;11347;52.030;4.690;2023-07-20T12:19:12;28.90;28.80
22360;DHT22;11347;52.030;4.690;2023-07-20T12:21:40;29.50;27.50
22360;DHT22;11347;52.030;4.690;2023-07-20T12:24:08;30.40;25.70
22360;DHT22;11347;52.030;4.690;2023-07-20T12:26:36;30.70;24.70
22360;DHT22;11347;52.030;4.690;2023-07-20T12:29:02;30.80;24.80
22360;DHT22;11347;52.030;4.690;2023-07-20T12:31:29;30.90;24.80
22360;DHT22;11347;52.030;4.690;2023-07-20T12:33:56;30.90;24.20
22360;DHT22;11347;52.030;4.690;2023-07-20T12:36:22;31.00;24.90
22360;DHT22;11347;52.030;4.690;2023-07-20T12:38:47;31.30;24.50
22360;DHT22;11347;52.030;4.690;2023-07-20T12:41:13;31.70;23.90
22360;DHT22;11347;52.030;4.690;2023-07-20T12:43:43;32.10;23.00
22360;DHT22;11347;52.030;4.690;2023-07-20T12:46:10;32.10;22.10
22360;DHT22;11347;52.030;4.690;2023-07-20T12:48:37;31.80;21.90
22360;DHT22;11347;52.030;4.690;2023-07-20T12:51:03;31.30;21.80
22360;DHT22;11347;52.030;4.690;2023-07-20T12:53:31;30.70;23.10
22360;DHT22;11347;52.030;4.690;2023-07-20T12:55:56;30.30;23.90
22360;DHT22;11347;52.030;4.690;2023-07-20T12:58:22;29.90;24.20
22360;DHT22;11347;52.030;4.690;2023-07-20T13:00:49;29.60;24.40
22360;DHT22;11347;52.030;4.690;2023-07-20T13:03:14;29.10;24.00
22360;DHT22;11347;52.030;4.690;2023-07-20T13:05:41;29.20;26.20
22360;DHT22;11347;52.030;4.690;2023-07-20T13:08:07;29.60;25.20
22360;DHT22;11347;52.030;4.690;2023-07-20T13:10:32;30.30;24.50
22360;DHT22;11347;52.030;4.690;2023-07-20T13:12:59;31.10;22.70
22360;DHT22;11347;52.030;4.690;2023-07-20T13:15:29;31.70;22.80
22360;DHT22;11347;52.030;4.690;2023-07-20T13:17:57;32.80;22.10
22360;DHT22;11347;52.030;4.690;2023-07-20T13:20:22;33.80;20.30
22360;DHT22;11347;52.030;4.690;2023-07-20T13:22:48;34.30;19.70
22360;DHT22;11347;52.030;4.690;2023-07-20T13:25:14;33.90;19.00
22360;DHT22;11347;52.030;4.690;2023-07-20T13:27:39;33.20;19.70
22360;DHT22;11347;52.030;4.690;2023-07-20T13:30:05;32.50;21.00
22360;DHT22;11347;52.030;4.690;2023-07-20T13:32:33;31.60;20.40
22360;DHT22;11347;52.030;4.690;2023-07-20T13:34:59;31.00;21.40
22360;DHT22;11347;52.030;4.690;2023-07-20T13:37:25;30.80;21.10
22360;DHT22;11347;52.030;4.690;2023-07-20T13:39:52;29.90;22.40
22360;DHT22;11347;52.030;4.690;2023-07-20T13:42:17;29.40;24.40
22360;DHT22;11347;52.030;4.690;2023-07-20T13:44:43;29.00;24.80
22360;DHT22;11347;52.030;4.690;2023-07-20T13:47:09;28.70;25.00
22360;DHT22;11347;52.030;4.690;2023-07-20T13:49:34;28.60;24.90
22360;DHT22;11347;52.030;4.690;2023-07-20T13:52:00;28.40;25.60
22360;DHT22;11347;52.030;4.690;2023-07-20T13:54:25;28.50;26.20
22360;DHT22;11347;52.030;4.690;2023-07-20T13:56:51;28.70;25.40
22360;DHT22;11347;52.030;4.690;2023-07-20T13:59:18;29.00;25.60
22360;DHT22;11347;52.030;4.690;2023-07-20T14:01:43;30.00;24.70
22360;DHT22;11347;52.030;4.690;2023-07-20T14:04:09;30.70;24.30
22360;DHT22;11347;52.030;4.690;2023-07-20T14:06:35;30.80;22.20
22360;DHT22;11347;52.030;4.690;2023-07-20T14:09:01;30.70;22.80
22360;DHT22;11347;52.030;4.690;2023-07-20T14:11:27;30.00;23.50
22360;DHT22;11347;52.030;4.690;2023-07-20T14:13:53;29.40;24.50
22360;DHT22;11347;52.030;4.690;2023-07-20T14:16:22;28.70;24.70
22360;DHT22;11347;52.030;4.690;2023-07-20T14:18:48;28.20;25.40
22360;DHT22;11347;52.030;4.690;2023-07-20T14:21:15;27.70;26.20
22360;DHT22;11347;52.030;4.690;2023-07-20T14:23:40;27.30;26.70
22360;DHT22;11347;52.030;4.690;2023-07-20T14:26:06;26.90;27.00
22360;DHT22;11347;52.030;4.690;2023-07-20T14:28:33;26.60;27.10
22360;DHT22;11347;52.030;4.690;2023-07-20T14:30:58;26.20;29.40
22360;DHT22;11347;52.030;4.690;2023-07-20T14:33:24;26.00;28.90
22360;DHT22;11347;52.030;4.690;2023-07-20T14:35:49;25.80;29.50
22360;DHT22;11347;52.030;4.690;2023-07-20T14:38:15;25.70;30.50
22360;DHT22;11347;52.030;4.690;2023-07-20T14:40:40;25.50;30.70
22360;DHT22;11347;52.030;4.690;2023-07-20T14:43:06;25.40;30.80
22360;DHT22;11347;52.030;4.690;2023-07-20T14:45:32;25.40;30.80
22360;DHT22;11347;52.030;4.690;2023-07-20T14:47:58;25.30;30.30
22360;DHT22;11347;52.030;4.690;2023-07-20T14:50:23;25.20;30.70
22360;DHT22;11347;52.030;4.690;2023-07-20T14:52:49;25.00;30.60
22360;DHT22;11347;52.030;4.690;2023-07-20T14:55:15;24.90;29.60
22360;DHT22;11347;52.030;4.690;2023-07-20T14:57:41;24.70;30.20
22360;DHT22;11347;52.030;4.690;2023-07-20T15:00:07;24.60;30.10
22360;DHT22;11347;52.030;4.690;2023-07-20T15:02:38;24.50;31.10
22360;DHT22;11347;52.030;4.690;2023-07-20T15:05:08;24.40;30.00
22360;DHT22;11347;52.030;4.690;2023-07-20T15:07:34;24.30;29.90
22360;DHT22;11347;52.030;4.690;2023-07-20T15:10:01;24.30;29.90
22360;DHT22;11347;52.030;4.690;2023-07-20T15:12:26;24.30;29.90
22360;DHT22;11347;52.030;4.690;2023-07-20T15:15:07;24.20;29.80
22360;DHT22;11347;52.030;4.690;2023-07-20T15:17:35;24.20;29.80
22360;DHT22;11347;52.030;4.690;2023-07-20T15:20:02;24.10;29.80
22360;DHT22;11347;52.030;4.690;2023-07-20T15:22:33;24.10;30.80
22360;DHT22;11347;52.030;4.690;2023-07-20T15:24:58;24.00;30.20
22360;DHT22;11347;52.030;4.690;2023-07-20T15:27:24;23.90;30.40
22360;DHT22;11347;52.030;4.690;2023-07-20T15:29:50;23.80;31.20
22360;DHT22;11347;52.030;4.690;2023-07-20T15:32:17;23.70;31.50
22360;DHT22;11347;52.030;4.690;2023-07-20T15:34:43;23.60;31.20
22360;DHT22;11347;52.030;4.690;2023-07-20T15:37:09;23.60;32.70
22360;DHT22;11347;52.030;4.690;2023-07-20T15:39:35;23.50;32.90
22360;DHT22;11347;52.030;4.690;2023-07-20T15:42:01;23.50;32.70
22360;DHT22;11347;52.030;4.690;2023-07-20T15:44:26;23.30;32.60
22360;DHT22;11347;52.030;4.690;2023-07-20T15:46:52;23.10;32.40
22360;DHT22;11347;52.030;4.690;2023-07-20T15:49:18;23.00;33.10
22360;DHT22;11347;52.030;4.690;2023-07-20T15:51:44;22.80;33.40
22360;DHT22;11347;52.030;4.690;2023-07-20T15:54:11;22.80;34.10
22360;DHT22;11347;52.030;4.690;2023-07-20T15:56:38;22.70;34.60
22360;DHT22;11347;52.030;4.690;2023-07-20T15:59:04;22.60;35.10
22360;DHT22;11347;52.030;4.690;2023-07-20T16:01:30;22.60;35.40
22360;DHT22;11347;52.030;4.690;2023-07-20T16:03:57;22.50;34.30
22360;DHT22;11347;52.030;4.690;2023-07-20T16:06:22;22.50;35.20
22360;DHT22;11347;52.030;4.690;2023-07-20T16:08:49;22.50;35.40
22360;DHT22;11347;52.030;4.690;2023-07-20T16:11:15;22.40;35.80
22360;DHT22;11347;52.030;4.690;2023-07-20T16:13:41;22.50;36.20
22360;DHT22;11347;52.030;4.690;2023-07-20T16:16:08;22.50;35.10
22360;DHT22;11347;52.030;4.690;2023-07-20T16:18:33;22.50;34.80
22360;DHT22;11347;52.030;4.690;2023-07-20T16:20:59;22.40;33.70
22360;DHT22;11347;52.030;4.690;2023-07-20T16:23:25;22.40;33.60
22360;DHT22;11347;52.030;4.690;2023-07-20T16:25:50;22.40;34.50
22360;DHT22;11347;52.030;4.690;2023-07-20T16:28:17;22.40;35.70
22360;DHT22;11347;52.030;4.690;2023-07-20T16:30:43;22.50;36.40
22360;DHT22;11347;52.030;4.690;2023-07-20T16:33:08;22.50;36.20
22360;DHT22;11347;52.030;4.690;2023-07-20T16:35:38;22.50;33.70
22360;DHT22;11347;52.030;4.690;2023-07-20T16:38:04;22.50;33.80
22360;DHT22;11347;52.030;4.690;2023-07-20T16:40:29;22.40;34.10
22360;DHT22;11347;52.030;4.690;2023-07-20T16:42:55;22.40;35.80
22360;DHT22;11347;52.030;4.690;2023-07-20T16:45:20;22.40;35.60
22360;DHT22;11347;52.030;4.690;2023-07-20T16:47:46;22.40;34.50
22360;DHT22;11347;52.030;4.690;2023-07-20T16:50:12;22.30;35.40
22360;DHT22;11347;52.030;4.690;2023-07-20T16:52:38;22.30;36.10
22360;DHT22;11347;52.030;4.690;2023-07-20T16:55:04;22.30;33.90
22360;DHT22;11347;52.030;4.690;2023-07-20T16:57:29;22.30;35.10
22360;DHT22;11347;52.030;4.690;2023-07-20T16:59:55;22.20;36.30
22360;DHT22;11347;52.030;4.690;2023-07-20T17:02:20;22.20;35.40
22360;DHT22;11347;52.030;4.690;2023-07-20T17:04:49;22.20;35.50
22360;DHT22;11347;52.030;4.690;2023-07-20T17:07:14;22.10;34.60
22360;DHT22;11347;52.030;4.690;2023-07-20T17:09:40;22.10;34.40
22360;DHT22;11347;52.030;4.690;2023-07-20T17:12:07;22.10;33.30
22360;DHT22;11347;52.030;4.690;2023-07-20T17:14:34;22.00;34.80
22360;DHT22;11347;52.030;4.690;2023-07-20T17:17:00;22.00;34.50
22360;DHT22;11347;52.030;4.690;2023-07-20T17:19:25;22.00;33.60
22360;DHT22;11347;52.030;4.690;2023-07-20T17:21:51;22.00;34.80
22360;DHT22;11347;52.030;4.690;2023-07-20T17:24:16;22.00;34.80
22360;DHT22;11347;52.030;4.690;2023-07-20T17:26:42;22.00;35.70
22360;DHT22;11347;52.030;4.690;2023-07-20T17:29:08;22.00;34.80
22360;DHT22;11347;52.030;4.690;2023-07-20T17:31:33;22.10;33.50
22360;DHT22;11347;52.030;4.690;2023-07-20T17:33:59;22.10;34.20
22360;DHT22;11347;52.030;4.690;2023-07-20T17:36:25;22.10;34.30
22360;DHT22;11347;52.030;4.690;2023-07-20T17:38:51;22.10;33.80
22360;DHT22;11347;52.030;4.690;2023-07-20T17:41:16;22.10;33.90
22360;DHT22;11347;52.030;4.690;2023-07-20T17:43:42;22.10;34.60
22360;DHT22;11347;52.030;4.690;2023-07-20T17:46:08;22.00;35.20
22360;DHT22;11347;52.030;4.690;2023-07-20T17:48:33;21.90;35.00
22360;DHT22;11347;52.030;4.690;2023-07-20T17:50:59;21.90;35.00
22360;DHT22;11347;52.030;4.690;2023-07-20T17:53:24;21.80;35.90
22360;DHT22;11347;52.030;4.690;2023-07-20T17:55:51;21.70;35.20
22360;DHT22;11347;52.030;4.690;2023-07-20T17:58:17;21.60;36.00
22360;DHT22;11347;52.030;4.690;2023-07-20T18:00:43;21.50;37.80
22360;DHT22;11347;52.030;4.690;2023-07-20T18:03:08;21.30;37.60
22360;DHT22;11347;52.030;4.690;2023-07-20T18:05:34;21.20;38.20
22360;DHT22;11347;52.030;4.690;2023-07-20T18:07:59;21.10;38.10
22360;DHT22;11347;52.030;4.690;2023-07-20T18:10:25;21.00;37.90
22360;DHT22;11347;52.030;4.690;2023-07-20T18:12:50;20.90;38.70
22360;DHT22;11347;52.030;4.690;2023-07-20T18:15:17;20.90;40.50
22360;DHT22;11347;52.030;4.690;2023-07-20T18:17:43;20.80;41.20
22360;DHT22;11347;52.030;4.690;2023-07-20T18:20:09;20.70;39.70
22360;DHT22;11347;52.030;4.690;2023-07-20T18:22:35;20.70;40.50
22360;DHT22;11347;52.030;4.690;2023-07-20T18:25:01;20.70;40.10
22360;DHT22;11347;52.030;4.690;2023-07-20T18:27:26;20.70;39.30
22360;DHT22;11347;52.030;4.690;2023-07-20T18:29:53;20.70;38.70
22360;DHT22;11347;52.030;4.690;2023-07-20T18:32:19;20.60;40.50
22360;DHT22;11347;52.030;4.690;2023-07-20T18:34:45;20.60;40.40
22360;DHT22;11347;52.030;4.690;2023-07-20T18:37:10;20.50;40.60
22360;DHT22;11347;52.030;4.690;2023-07-20T18:39:37;20.40;40.70
22360;DHT22;11347;52.030;4.690;2023-07-20T18:42:03;20.30;42.00
22360;DHT22;11347;52.030;4.690;2023-07-20T18:44:29;20.20;40.90
22360;DHT22;11347;52.030;4.690;2023-07-20T18:46:54;20.20;41.60
22360;DHT22;11347;52.030;4.690;2023-07-20T18:49:22;20.10;42.30
22360;DHT22;11347;52.030;4.690;2023-07-20T18:51:48;20.00;42.60
22360;DHT22;11347;52.030;4.690;2023-07-20T18:54:14;19.90;43.10
22360;DHT22;11347;52.030;4.690;2023-07-20T18:56:41;19.90;43.70
22360;DHT22;11347;52.030;4.690;2023-07-20T18:59:07;19.80;45.40
22360;DHT22;11347;52.030;4.690;2023-07-20T19:01:32;19.70;46.80
22360;DHT22;11347;52.030;4.690;2023-07-20T19:03:58;19.60;47.70
22360;DHT22;11347;52.030;4.690;2023-07-20T19:06:23;19.50;48.40
22360;DHT22;11347;52.030;4.690;2023-07-20T19:08:49;19.50;50.30
22360;DHT22;11347;52.030;4.690;2023-07-20T19:11:14;19.40;51.10
22360;DHT22;11347;52.030;4.690;2023-07-20T19:13:40;19.40;50.90
22360;DHT22;11347;52.030;4.690;2023-07-20T19:16:06;19.30;51.20
22360;DHT22;11347;52.030;4.690;2023-07-20T19:18:36;19.30;54.10
22360;DHT22;11347;52.030;4.690;2023-07-20T19:21:03;19.30;54.40
22360;DHT22;11347;52.030;4.690;2023-07-20T19:23:30;19.20;53.80
22360;DHT22;11347;52.030;4.690;2023-07-20T19:25:56;19.20;53.90
22360;DHT22;11347;52.030;4.690;2023-07-20T19:28:22;19.10;55.20
22360;DHT22;11347;52.030;4.690;2023-07-20T19:30:48;19.10;55.90
22360;DHT22;11347;52.030;4.690;2023-07-20T19:33:14;19.00;56.00
22360;DHT22;11347;52.030;4.690;2023-07-20T19:35:39;19.00;56.20
22360;DHT22;11347;52.030;4.690;2023-07-20T19:38:05;18.90;56.50
22360;DHT22;11347;52.030;4.690;2023-07-20T19:40:32;18.90;56.60
22360;DHT22;11347;52.030;4.690;2023-07-20T19:42:59;18.80;57.00
22360;DHT22;11347;52.030;4.690;2023-07-20T19:45:25;18.70;57.70
22360;DHT22;11347;52.030;4.690;2023-07-20T19:47:51;18.70;59.40
22360;DHT22;11347;52.030;4.690;2023-07-20T19:50:16;18.60;59.10
22360;DHT22;11347;52.030;4.690;2023-07-20T19:52:42;18.60;60.00
22360;DHT22;11347;52.030;4.690;2023-07-20T19:55:12;18.50;60.80
22360;DHT22;11347;52.030;4.690;2023-07-20T19:57:37;18.50;61.30
22360;DHT22;11347;52.030;4.690;2023-07-20T20:00:03;18.40;61.90
22360;DHT22;11347;52.030;4.690;2023-07-20T20:02:38;18.40;62.90
22360;DHT22;11347;52.030;4.690;2023-07-20T20:05:05;18.30;63.50
22360;DHT22;11347;52.030;4.690;2023-07-20T20:07:32;18.20;64.90
22360;DHT22;11347;52.030;4.690;2023-07-20T20:10:00;18.10;65.10
22360;DHT22;11347;52.030;4.690;2023-07-20T20:12:25;18.10;65.40
22360;DHT22;11347;52.030;4.690;2023-07-20T20:14:51;18.10;65.90
22360;DHT22;11347;52.030;4.690;2023-07-20T20:17:16;18.10;67.10
22360;DHT22;11347;52.030;4.690;2023-07-20T20:19:42;18.00;68.10
22360;DHT22;11347;52.030;4.690;2023-07-20T20:22:08;18.00;68.30
22360;DHT22;11347;52.030;4.690;2023-07-20T20:24:33;18.00;68.00
22360;DHT22;11347;52.030;4.690;2023-07-20T20:26:59;18.00;67.60
22360;DHT22;11347;52.030;4.690;2023-07-20T20:29:25;17.90;67.40
22360;DHT22;11347;52.030;4.690;2023-07-20T20:31:50;17.90;67.60
22360;DHT22;11347;52.030;4.690;2023-07-20T20:34:16;17.90;67.60
22360;DHT22;11347;52.030;4.690;2023-07-20T20:36:42;17.90;67.20
22360;DHT22;11347;52.030;4.690;2023-07-20T20:39:08;17.90;66.80
22360;DHT22;11347;52.030;4.690;2023-07-20T20:41:34;17.90;67.10
22360;DHT22;11347;52.030;4.690;2023-07-20T20:44:10;17.80;67.00
22360;DHT22;11347;52.030;4.690;2023-07-20T20:46:46;17.80;67.30
22360;DHT22;11347;52.030;4.690;2023-07-20T20:49:12;17.80;67.30
22360;DHT22;11347;52.030;4.690;2023-07-20T20:51:37;17.80;67.60
22360;DHT22;11347;52.030;4.690;2023-07-20T20:54:03;17.70;67.40
22360;DHT22;11347;52.030;4.690;2023-07-20T20:56:30;17.70;67.40
22360;DHT22;11347;52.030;4.690;2023-07-20T20:58:55;17.60;67.60
22360;DHT22;11347;52.030;4.690;2023-07-20T21:01:21;17.70;67.70
22360;DHT22;11347;52.030;4.690;2023-07-20T21:03:48;17.60;68.20
22360;DHT22;11347;52.030;4.690;2023-07-20T21:06:14;17.60;68.30
22360;DHT22;11347;52.030;4.690;2023-07-20T21:08:39;17.60;68.80
22360;DHT22;11347;52.030;4.690;2023-07-20T21:11:05;17.60;69.20
22360;DHT22;11347;52.030;4.690;2023-07-20T21:13:30;17.60;69.20
22360;DHT22;11347;52.030;4.690;2023-07-20T21:15:56;17.60;69.80
22360;DHT22;11347;52.030;4.690;2023-07-20T21:18:22;17.50;70.20
22360;DHT22;11347;52.030;4.690;2023-07-20T21:20:48;17.50;70.00
22360;DHT22;11347;52.030;4.690;2023-07-20T21:23:13;17.50;69.40
22360;DHT22;11347;52.030;4.690;2023-07-20T21:25:39;17.50;70.20
22360;DHT22;11347;52.030;4.690;2023-07-20T21:28:05;17.50;70.70
22360;DHT22;11347;52.030;4.690;2023-07-20T21:30:31;17.50;71.20
22360;DHT22;11347;52.030;4.690;2023-07-20T21:32:56;17.40;72.30
22360;DHT22;11347;52.030;4.690;2023-07-20T21:35:23;17.40;71.80
22360;DHT22;11347;52.030;4.690;2023-07-20T21:37:49;17.40;71.70
22360;DHT22;11347;52.030;4.690;2023-07-20T21:40:15;17.40;71.90
22360;DHT22;11347;52.030;4.690;2023-07-20T21:42:41;17.40;72.30
22360;DHT22;11347;52.030;4.690;2023-07-20T21:45:08;17.40;73.00
22360;DHT22;11347;52.030;4.690;2023-07-20T21:47:33;17.40;73.40
22360;DHT22;11347;52.030;4.690;2023-07-20T21:49:59;17.30;73.40
22360;DHT22;11347;52.030;4.690;2023-07-20T21:52:25;17.30;73.70
22360;DHT22;11347;52.030;4.690;2023-07-20T21:54:51;17.30;74.60
22360;DHT22;11347;52.030;4.690;2023-07-20T21:57:18;17.30;74.70
22360;DHT22;11347;52.030;4.690;2023-07-20T21:59:43;17.30;74.00
22360;DHT22;11347;52.030;4.690;2023-07-20T22:02:10;17.30;74.50
22360;DHT22;11347;52.030;4.690;2023-07-20T22:04:36;17.30;75.10
22360;DHT22;11347;52.030;4.690;2023-07-20T22:07:02;17.20;74.30
22360;DHT22;11347;52.030;4.690;2023-07-20T22:09:28;17.20;74.60
22360;DHT22;11347;52.030;4.690;2023-07-20T22:11:53;17.20;74.80
22360;DHT22;11347;52.030;4.690;2023-07-20T22:14:19;17.10;74.90
22360;DHT22;11347;52.030;4.690;2023-07-20T22:16:46;17.10;75.30
22360;DHT22;11347;52.030;4.690;2023-07-20T22:19:11;17.10;75.40
22360;DHT22;11347;52.030;4.690;2023-07-20T22:21:37;17.10;75.50
22360;DHT22;11347;52.030;4.690;2023-07-20T22:24:04;17.00;75.10
22360;DHT22;11347;52.030;4.690;2023-07-20T22:26:31;17.00;75.20
22360;DHT22;11347;52.030;4.690;2023-07-20T22:28:57;17.00;75.50
22360;DHT22;11347;52.030;4.690;2023-07-20T22:31:22;17.00;75.60
22360;DHT22;11347;52.030;4.690;2023-07-20T22:33:48;16.90;76.20
22360;DHT22;11347;52.030;4.690;2023-07-20T22:36:13;16.90;77.10
22360;DHT22;11347;52.030;4.690;2023-07-20T22:38:39;16.90;76.80
22360;DHT22;11347;52.030;4.690;2023-07-20T22:41:04;16.90;76.30
22360;DHT22;11347;52.030;4.690;2023-07-20T22:43:30;16.80;76.20
22360;DHT22;11347;52.030;4.690;2023-07-20T22:45:56;16.80;76.50
22360;DHT22;11347;52.030;4.690;2023-07-20T22:48:21;16.80;76.90
22360;DHT22;11347;52.030;4.690;2023-07-20T22:50:49;16.70;77.10
22360;DHT22;11347;52.030;4.690;2023-07-20T22:53:14;16.70;78.80
22360;DHT22;11347;52.030;4.690;2023-07-20T22:55:43;16.70;78.10
22360;DHT22;11347;52.030;4.690;2023-07-20T22:58:09;16.70;77.60
22360;DHT22;11347;52.030;4.690;2023-07-20T23:00:34;16.70;77.10
22360;DHT22;11347;52.030;4.690;2023-07-20T23:03:00;16.60;76.80
22360;DHT22;11347;52.030;4.690;2023-07-20T23:05:26;16.60;76.80
22360;DHT22;11347;52.030;4.690;2023-07-20T23:07:52;16.60;76.20
22360;DHT22;11347;52.030;4.690;2023-07-20T23:10:18;16.60;76.10
22360;DHT22;11347;52.030;4.690;2023-07-20T23:12:43;16.50;77.40
22360;DHT22;11347;52.030;4.690;2023-07-20T23:15:11;16.50;77.30
22360;DHT22;11347;52.030;4.690;2023-07-20T23:17:39;16.50;77.00
22360;DHT22;11347;52.030;4.690;2023-07-20T23:20:05;16.50;76.60
22360;DHT22;11347;52.030;4.690;2023-07-20T23:22:34;16.40;76.40
22360;DHT22;11347;52.030;4.690;2023-07-20T23:25:00;16.40;76.40
22360;DHT22;11347;52.030;4.690;2023-07-20T23:27:25;16.40;76.30
22360;DHT22;11347;52.030;4.690;2023-07-20T23:29:51;16.40;77.40
22360;DHT22;11347;52.030;4.690;2023-07-20T23:32:16;16.40;77.70
22360;DHT22;11347;52.030;4.690;2023-07-20T23:34:42;16.30;77.60
22360;DHT22;11347;52.030;4.690;2023-07-20T23:37:08;16.30;77.80
22360;DHT22;11347;52.030;4.690;2023-07-20T23:39:33;16.40;78.20
22360;DHT22;11347;52.030;4.690;2023-07-20T23:42:00;16.30;78.50
22360;DHT22;11347;52.030;4.690;2023-07-20T23:44:27;16.30;79.00
22360;DHT22;11347;52.030;4.690;2023-07-20T23:46:55;16.30;79.60
22360;DHT22;11347;52.030;4.690;2023-07-20T23:49:21;16.30;79.90
22360;DHT22;11347;52.030;4.690;2023-07-20T23:51:48;16.30;79.90
22360;DHT22;11347;52.030;4.690;2023-07-20T23:54:14;16.30;80.50
22360;DHT22;11347;52.030;4.690;2023-07-20T23:56:41;16.30;80.40
22360;DHT22;11347;52.030;4.690;2023-07-20T23:59:06;16.30;80.40
